Time;durP1;ratioP1;P1;durP2;ratioP2;P2;SDS_P1;SDS_P2;PMS_P1;PMS_P2;Temp;Humidity;BMP_temperature;BMP_pressure;BME280_temperature;BME280_humidity;BME280_pressure;Samples;Min_cycle;Max_cycle;Signal;HPM_P1;HPM_P2
2021/08/01 08:13:45;;;;;;;15.70;8.83;;;17.60;98.30;;;;;;5129491;23;20948;-81
2021/08/01 08:15:49;;;;;;;9.10;7.53;;;17.70;98.30;;;;;;5126113;23;20429;-81
2021/08/01 08:17:53;;;;;;;12.33;8.67;;;17.70;98.30;;;;;;5128963;23;20430;-81
2021/08/01 08:19:58;;;;;;;11.90;8.60;;;17.80;98.30;;;;;;5101189;23;20423;-81
2021/08/01 08:22:04;;;;;;;9.03;7.97;;;17.80;98.30;;;;;;5118369;23;21003;-81
2021/08/01 08:24:07;;;;;;;12.20;9.77;;;17.90;98.30;;;;;;5100819;23;20430;-81
2021/08/01 08:26:12;;;;;;;9.50;8.50;;;17.90;98.30;;;;;;5125878;23;20480;-81
2021/08/01 08:28:17;;;;;;;11.73;9.77;;;18.00;98.30;;;;;;5126153;23;20517;-81
2021/08/01 08:30:21;;;;;;;11.20;9.30;;;18.00;98.30;;;;;;5125877;23;20497;-81
2021/08/01 08:32:24;;;;;;;13.70;9.90;;;18.10;98.30;;;;;;5125582;23;20452;-81
2021/08/01 08:34:28;;;;;;;11.33;8.93;;;18.20;98.30;;;;;;5126563;23;20808;-81
2021/08/01 08:36:33;;;;;;;15.57;9.20;;;18.20;98.30;;;;;;5125795;23;20429;-82
2021/08/01 08:38:36;;;;;;;8.63;7.63;;;18.30;98.30;;;;;;5125812;23;20432;-81
2021/08/01 08:40:41;;;;;;;9.57;8.47;;;18.50;98.30;;;;;;5127411;23;20450;-80
2021/08/01 08:42:45;;;;;;;12.13;9.07;;;18.30;98.30;;;;;;5126782;23;20950;-81
2021/08/01 08:44:49;;;;;;;10.43;8.30;;;18.30;98.30;;;;;;5126424;23;20429;-80
2021/08/01 08:46:54;;;;;;;10.87;9.10;;;18.20;98.30;;;;;;5118419;23;20473;-81
2021/08/01 08:48:58;;;;;;;10.37;9.07;;;18.30;98.30;;;;;;5126665;23;20442;-81
2021/08/01 08:51:01;;;;;;;10.27;8.37;;;18.40;98.30;;;;;;5126163;23;20445;-81
2021/08/01 08:53:06;;;;;;;10.37;7.70;;;18.50;98.30;;;;;;5125930;23;20480;-81
2021/08/01 08:55:10;;;;;;;10.83;8.40;;;18.40;98.30;;;;;;5118240;23;20429;-81
2021/08/01 08:57:20;;;;;;;12.10;8.10;;;18.40;98.30;;;;;;5117560;23;20430;-81
2021/08/01 08:59:24;;;;;;;9.20;7.60;;;18.20;98.30;;;;;;5126270;23;20467;-81
2021/08/01 09:01:27;;;;;;;9.87;8.00;;;18.00;98.30;;;;;;5117733;23;20485;-81
2021/08/01 09:03:32;;;;;;;9.53;8.33;;;18.00;98.30;;;;;;5117410;23;20492;-81
2021/08/01 09:05:35;;;;;;;11.80;8.60;;;18.10;98.30;;;;;;5117804;23;20432;-81
2021/08/01 09:07:40;;;;;;;9.70;8.03;;;18.30;98.30;;;;;;5126431;23;20422;-81
2021/08/01 09:09:43;;;;;;;10.07;8.17;;;18.60;98.30;;;;;;5118383;23;20421;-82
2021/08/01 09:11:46;;;;;;;8.50;7.53;;;18.80;98.30;;;;;;5125454;23;20525;-82
2021/08/01 09:13:51;;;;;;;8.53;7.63;;;19.00;98.30;;;;;;5117858;23;20737;-81
2021/08/01 09:15:56;;;;;;;10.17;7.70;;;19.20;98.30;;;;;;5126332;23;20480;-81
2021/08/01 09:18:00;;;;;;;9.43;7.50;;;19.30;98.30;;;;;;5118184;23;20440;-82
2021/08/01 09:20:17;;;;;;;9.00;7.43;;;19.30;98.30;;;;;;5126693;23;20445;-83
2021/08/01 18:12:50;;;;;;;5.03;2.93;;;18.30;98.30;;;;;;5119451;23;20456;-82
2021/08/01 18:15:05;;;;;;;4.47;3.57;;;18.20;98.30;;;;;;5129520;23;20430;-81
2021/08/01 18:17:19;;;;;;;5.60;3.97;;;18.10;98.30;;;;;;5128303;23;20818;-82
2021/08/01 18:19:33;;;;;;;5.00;3.67;;;18.10;98.30;;;;;;5121208;23;20776;-81
2021/08/01 18:24:20;;;;;;;6.57;3.47;;;18.20;98.30;;;;;;5117940;23;20460;-82
2021/08/01 18:49:15;;;;;;;3.60;2.80;;;18.10;98.30;;;;;;4945948;24;20826;-81
2021/08/01 18:51:25;;;;;;;4.63;3.10;;;18.00;98.30;;;;;;4955458;24;20444;-82
2021/08/01 18:53:31;;;;;;;6.40;4.50;;;18.00;98.30;;;;;;4955809;24;20531;-81
2021/08/01 18:55:37;;;;;;;4.90;3.00;;;18.00;98.30;;;;;;4955964;24;20436;-82
2021/08/01 18:57:41;;;;;;;3.67;3.23;;;17.90;98.30;;;;;;4957903;24;20783;-81
2021/08/01 18:59:47;;;;;;;3.70;3.00;;;17.90;98.30;;;;;;4967260;24;20490;-81
2021/08/01 19:01:50;;;;;;;4.13;3.00;;;17.90;98.30;;;;;;4966574;24;20471;-81
2021/08/01 19:03:53;;;;;;;5.00;3.00;;;17.80;98.30;;;;;;4968984;23;20560;-81
2021/08/01 19:05:59;;;;;;;3.97;3.10;;;17.70;98.30;;;;;;5030680;23;20460;-81
2021/08/01 19:08:02;;;;;;;6.27;3.27;;;17.70;98.30;;;;;;5081377;23;20494;-81
2021/08/01 19:10:06;;;;;;;4.63;3.90;;;17.50;98.30;;;;;;5110452;23;20427;-81
2021/08/01 19:12:09;;;;;;;4.10;3.50;;;17.50;98.30;;;;;;5133331;23;20464;-81
2021/08/01 19:14:12;;;;;;;6.53;3.07;;;17.60;98.30;;;;;;5119510;23;20449;-81
2021/08/01 19:16:18;;;;;;;3.93;3.50;;;17.60;98.30;;;;;;5119227;23;20516;-82
2021/08/01 19:18:22;;;;;;;6.00;3.10;;;17.70;98.30;;;;;;5119002;23;20485;-81
2021/08/01 19:20:28;;;;;;;4.63;3.90;;;17.80;98.30;;;;;;5127103;23;20432;-81
2021/08/01 19:22:43;;;;;;;4.77;3.00;;;17.80;98.30;;;;;;5118566;23;20421;-83
2021/08/01 19:24:52;;;;;;;3.93;2.97;;;17.80;98.30;;;;;;5119230;23;20460;-82
2021/08/01 19:26:59;;;;;;;7.20;3.47;;;17.80;98.30;;;;;;5118748;23;20410;-82
2021/08/01 19:29:03;;;;;;;3.50;3.00;;;17.80;98.30;;;;;;5118779;23;20513;-82
2021/08/01 19:31:08;;;;;;;4.30;3.03;;;17.70;98.30;;;;;;5127126;23;20420;-81
2021/08/01 19:33:14;;;;;;;5.10;3.30;;;17.70;98.30;;;;;;5119133;23;20446;-82
2021/08/01 19:35:18;;;;;;;4.90;3.20;;;17.60;98.30;;;;;;5119113;23;20445;-82
2021/08/01 19:37:27;;;;;;;6.57;3.80;;;17.60;98.30;;;;;;5125497;23;20424;-82
2021/08/01 19:39:34;;;;;;;7.57;4.10;;;17.70;98.30;;;;;;5118952;23;20846;-82
2021/08/01 19:41:37;;;;;;;7.50;4.43;;;17.80;98.30;;;;;;5126008;23;20410;-82
2021/08/01 19:43:43;;;;;;;4.17;3.50;;;17.80;98.30;;;;;;5117573;23;20513;-82
2021/08/01 19:45:48;;;;;;;6.63;4.07;;;17.70;98.30;;;;;;5126431;23;21005;-82
2021/08/01 19:47:52;;;;;;;6.23;3.93;;;17.70;98.30;;;;;;5117898;23;20457;-82
2021/08/01 19:49:56;;;;;;;5.17;3.73;;;17.70;98.30;;;;;;5116854;23;20448;-82
2021/08/01 19:51:59;;;;;;;6.50;3.60;;;17.70;98.30;;;;;;5125634;23;20422;-82
2021/08/01 19:54:02;;;;;;;3.90;3.20;;;17.60;98.30;;;;;;5119047;23;20482;-82
2021/08/01 19:56:06;;;;;;;10.07;4.57;;;17.50;98.30;;;;;;5119687;23;20521;-82
2021/08/01 19:58:11;;;;;;;5.57;3.53;;;17.40;98.30;;;;;;5118239;23;20534;-82
2021/08/01 20:00:15;;;;;;;5.90;3.90;;;17.40;98.30;;;;;;5127340;23;20436;-82
2021/08/01 20:02:18;;;;;;;5.80;3.63;;;17.40;98.30;;;;;;5127833;23;20425;-82
2021/08/01 20:04:23;;;;;;;3.70;2.87;;;17.30;98.30;;;;;;5120597;23;20760;-82
2021/08/01 20:06:26;;;;;;;4.20;3.57;;;17.20;98.30;;;;;;5128544;23;20494;-82
2021/08/01 20:08:30;;;;;;;7.50;3.33;;;17.20;98.30;;;;;;5119966;23;20454;-82
2021/08/01 20:10:34;;;;;;;4.50;3.10;;;17.10;98.30;;;;;;5128033;23;20953;-82
2021/08/01 20:12:39;;;;;;;10.07;3.67;;;17.00;98.30;;;;;;5127882;23;20433;-82
2021/08/01 20:14:42;;;;;;;9.13;3.30;;;17.00;98.30;;;;;;5127662;23;20449;-82
2021/08/01 20:16:45;;;;;;;4.70;3.67;;;16.90;98.30;;;;;;5128504;23;20426;-81
2021/08/01 20:18:49;;;;;;;4.33;3.00;;;16.90;98.30;;;;;;5127586;23;20767;-82
2021/08/01 20:20:52;;;;;;;8.57;3.50;;;16.90;98.30;;;;;;5118587;23;20430;-82
2021/08/01 20:22:55;;;;;;;8.00;3.27;;;16.90;98.30;;;;;;5120214;23;20429;-82
2021/08/01 20:24:58;;;;;;;3.83;3.43;;;16.80;98.30;;;;;;5119598;23;20428;-82
2021/08/01 20:27:01;;;;;;;3.90;3.10;;;16.70;98.30;;;;;;5120052;23;20458;-82
2021/08/01 20:29:07;;;;;;;3.53;2.97;;;16.70;98.30;;;;;;5119674;23;20460;-82
2021/08/01 20:31:12;;;;;;;4.50;2.70;;;16.60;98.30;;;;;;5118101;23;20462;-82
2021/08/01 20:33:15;;;;;;;4.23;3.00;;;16.50;98.30;;;;;;5119464;23;20414;-82
2021/08/01 20:35:18;;;;;;;9.90;3.40;;;16.40;98.30;;;;;;5127917;23;20422;-82
2021/08/01 20:37:21;;;;;;;3.70;2.87;;;16.40;98.30;;;;;;5119478;23;20429;-82
2021/08/01 20:39:26;;;;;;;5.90;3.37;;;16.40;98.30;;;;;;5119595;23;20449;-82
2021/08/01 20:41:31;;;;;;;5.10;3.50;;;16.40;98.30;;;;;;5119438;23;21009;-82
2021/08/01 20:43:34;;;;;;;9.73;3.50;;;16.40;98.30;;;;;;5128275;23;20449;-82
2021/08/01 20:45:38;;;;;;;4.60;3.80;;;16.30;98.30;;;;;;5129003;23;20520;-82
2021/08/01 20:47:41;;;;;;;6.63;3.40;;;16.30;98.30;;;;;;5120095;23;20462;-82
2021/08/01 20:49:44;;;;;;;9.50;4.40;;;16.20;98.30;;;;;;5119303;23;20688;-83
2021/08/01 20:51:47;;;;;;;6.43;4.80;;;16.20;98.30;;;;;;5118356;23;20545;-83
2021/08/01 20:53:50;;;;;;;7.60;4.20;;;16.20;98.30;;;;;;5120602;23;20449;-81
2021/08/01 20:55:53;;;;;;;6.10;4.80;;;16.20;98.30;;;;;;5119738;23;20505;-82
2021/08/01 20:57:56;;;;;;;7.60;4.27;;;16.20;98.30;;;;;;5119814;23;20429;-82
2021/08/01 20:59:59;;;;;;;6.27;3.60;;;16.20;98.30;;;;;;5127205;23;21010;-82
2021/08/01 21:02:04;;;;;;;6.80;4.13;;;16.20;98.30;;;;;;5125757;23;20422;-82
2021/08/01 21:04:07;;;;;;;10.80;4.40;;;16.10;98.30;;;;;;5119295;23;20821;-81
2021/08/01 21:06:10;;;;;;;4.50;3.60;;;16.10;98.30;;;;;;5119344;23;20493;-82
2021/08/01 21:08:13;;;;;;;5.57;3.90;;;16.10;98.30;;;;;;5119154;23;20828;-82
2021/08/01 21:10:17;;;;;;;5.50;3.40;;;16.10;98.30;;;;;;5117786;23;20430;-82
2021/08/01 21:12:20;;;;;;;6.57;3.57;;;16.10;98.30;;;;;;5115727;23;20927;-82
2021/08/01 21:14:23;;;;;;;5.30;3.50;;;16.10;98.30;;;;;;5117120;23;20476;-82
2021/08/01 21:16:26;;;;;;;6.10;3.40;;;16.10;98.30;;;;;;5118507;23;20529;-81
2021/08/01 21:18:30;;;;;;;5.80;3.87;;;16.10;98.30;;;;;;5126774;23;20445;-82
2021/08/01 21:20:34;;;;;;;4.40;2.97;;;16.10;98.30;;;;;;5118647;23;20433;-82
2021/08/01 21:22:37;;;;;;;3.80;2.80;;;16.10;98.30;;;;;;5118774;23;20834;-82
2021/08/01 21:24:40;;;;;;;4.90;3.30;;;16.10;98.30;;;;;;5118469;23;21161;-81
2021/08/01 21:26:43;;;;;;;5.47;3.43;;;16.10;98.30;;;;;;5119411;23;20426;-81
2021/08/01 21:28:48;;;;;;;6.33;3.43;;;16.10;98.30;;;;;;5119573;23;20473;-83
2021/08/01 21:30:51;;;;;;;4.83;3.47;;;16.10;98.30;;;;;;5127318;23;20473;-84
2021/08/01 21:33:01;;;;;;;4.70;3.00;;;16.10;98.30;;;;;;5126711;23;20429;-83
2021/08/01 21:35:07;;;;;;;4.87;3.03;;;16.10;98.30;;;;;;5126209;23;20790;-83
2021/08/01 21:37:14;;;;;;;6.97;3.13;;;16.10;98.30;;;;;;5125568;23;20485;-84
2021/08/01 21:39:21;;;;;;;7.90;3.23;;;16.10;98.30;;;;;;5116750;23;20752;-84
2021/08/01 21:41:32;;;;;;;4.10;2.93;;;16.00;98.30;;;;;;5125837;23;20430;-83
2021/08/01 21:43:42;;;;;;;4.93;3.80;;;16.00;98.30;;;;;;5126353;23;20430;-83
2021/08/01 21:45:46;;;;;;;6.33;3.60;;;16.00;98.30;;;;;;5126668;23;20401;-83
2021/08/01 21:47:48;;;;;;;4.90;3.27;;;16.00;98.30;;;;;;5118206;23;20430;-84
2021/08/01 21:49:51;;;;;;;4.50;3.00;;;16.00;98.30;;;;;;5125761;23;20418;-83
2021/08/01 21:51:56;;;;;;;5.40;3.33;;;16.10;98.30;;;;;;5125273;23;21345;-83
2021/08/01 21:53:59;;;;;;;3.43;3.03;;;16.10;98.30;;;;;;5125892;23;20456;-84
2021/08/01 21:56:02;;;;;;;8.00;3.40;;;16.20;98.30;;;;;;5126030;23;20472;-83
2021/08/01 21:58:05;;;;;;;3.53;3.13;;;16.30;98.30;;;;;;5118032;23;20457;-84
2021/08/01 22:00:14;;;;;;;7.53;3.03;;;16.30;98.30;;;;;;5126182;23;20422;-84
2021/08/01 22:02:20;;;;;;;6.07;3.20;;;16.30;98.30;;;;;;5117561;23;20418;-83
2021/08/01 22:04:31;;;;;;;5.93;3.33;;;16.40;98.30;;;;;;5117587;23;20783;-84
2021/08/01 22:06:38;;;;;;;3.80;2.67;;;16.40;98.30;;;;;;5118443;23;21259;-83
2021/08/01 22:08:44;;;;;;;6.10;3.13;;;16.40;98.30;;;;;;5126673;23;20823;-83
2021/08/01 22:10:47;;;;;;;5.47;3.10;;;16.30;98.30;;;;;;5126909;23;20883;-83
2021/08/01 22:12:51;;;;;;;6.40;3.10;;;16.30;98.30;;;;;;5118226;23;20512;-83
2021/08/01 22:14:54;;;;;;;5.37;3.07;;;16.20;98.30;;;;;;5127231;23;20528;-84
2021/08/01 22:16:57;;;;;;;6.83;3.73;;;16.10;98.30;;;;;;5126692;23;20497;-84
2021/08/01 22:19:00;;;;;;;6.03;3.60;;;16.10;98.30;;;;;;5119058;23;20537;-83
2021/08/01 22:21:04;;;;;;;5.83;2.90;;;16.00;98.30;;;;;;5126467;23;20480;-84
2021/08/01 22:23:07;;;;;;;8.87;3.10;;;16.00;98.30;;;;;;5118858;23;21237;-83
2021/08/01 22:25:12;;;;;;;6.73;3.20;;;16.00;98.30;;;;;;5127149;23;20502;-83
2021/08/01 22:27:16;;;;;;;4.03;3.37;;;15.90;98.30;;;;;;5119021;23;20472;-83
2021/08/01 22:29:20;;;;;;;5.40;3.40;;;15.80;98.30;;;;;;5136497;23;20465;-83
2021/08/01 22:31:24;;;;;;;5.10;2.83;;;15.70;98.30;;;;;;5142851;23;20412;-84
2021/08/01 22:33:28;;;;;;;4.57;3.63;;;15.70;98.30;;;;;;5130488;23;20425;-83
2021/08/01 22:35:33;;;;;;;4.97;3.37;;;15.60;98.30;;;;;;5118266;23;20446;-83
2021/08/01 22:37:36;;;;;;;4.80;2.90;;;15.60;98.30;;;;;;5118058;23;20440;-83
2021/08/01 22:39:43;;;;;;;6.77;2.90;;;15.60;98.30;;;;;;5118557;23;20552;-83
2021/08/01 22:41:49;;;;;;;4.00;2.90;;;15.60;98.30;;;;;;5117066;23;20424;-84
2021/08/01 22:43:53;;;;;;;4.70;3.00;;;15.50;98.30;;;;;;5126069;23;20766;-83
2021/08/01 22:45:57;;;;;;;3.80;2.83;;;15.60;98.30;;;;;;5125954;23;20442;-83
2021/08/01 22:48:01;;;;;;;8.70;3.10;;;15.60;98.30;;;;;;5126175;23;20422;-83
2021/08/01 22:50:04;;;;;;;8.37;2.90;;;15.60;98.30;;;;;;5116518;23;20521;-83
2021/08/01 22:52:10;;;;;;;4.30;3.00;;;15.50;98.30;;;;;;5117426;23;20437;-84
2021/08/01 22:54:14;;;;;;;5.13;2.67;;;15.50;98.30;;;;;;5118009;23;20434;-83
2021/08/01 22:56:18;;;;;;;4.97;3.33;;;15.40;98.30;;;;;;5125818;23;20441;-83
2021/08/01 22:58:22;;;;;;;5.83;3.90;;;15.40;98.30;;;;;;5117711;23;20461;-83
2021/08/01 23:00:25;;;;;;;3.67;3.00;;;15.40;98.30;;;;;;5116703;23;20520;-84
2021/08/01 23:02:31;;;;;;;3.60;2.97;;;15.30;98.30;;;;;;5125579;23;20493;-83
2021/08/01 23:04:46;;;;;;;6.27;2.87;;;15.30;98.30;;;;;;5125510;23;20402;-84
2021/08/01 23:06:52;;;;;;;4.50;2.80;;;15.20;98.30;;;;;;5125582;23;20417;-83
2021/08/01 23:09:02;;;;;;;5.43;2.80;;;15.20;98.30;;;;;;5117915;23;20532;-83
2021/08/01 23:11:10;;;;;;;4.37;3.50;;;15.20;98.30;;;;;;5126516;23;20931;-84
2021/08/01 23:13:16;;;;;;;6.20;2.83;;;15.10;98.30;;;;;;5127206;23;20413;-83
2021/08/01 23:15:21;;;;;;;5.73;3.10;;;15.10;98.30;;;;;;5119930;23;20469;-83
2021/08/01 23:17:38;;;;;;;3.30;2.73;;;15.10;98.30;;;;;;5119328;23;20915;-83
2021/08/01 23:19:49;;;;;;;3.60;2.90;;;15.10;98.30;;;;;;5126675;23;20500;-84
2021/08/01 23:21:54;;;;;;;5.00;3.10;;;15.00;98.30;;;;;;5126469;23;20431;-83
2021/08/01 23:23:59;;;;;;;5.00;3.00;;;15.00;98.30;;;;;;5126211;23;20410;-83
2021/08/01 23:26:04;;;;;;;5.53;3.00;;;15.00;98.30;;;;;;5125397;23;20430;-83
2021/08/01 23:28:07;;;;;;;6.23;3.20;;;15.00;98.30;;;;;;5125571;23;20489;-84
2021/08/01 23:30:14;;;;;;;4.97;3.50;;;15.00;98.30;;;;;;5124263;23;20430;-83
2021/08/01 23:32:21;;;;;;;6.17;3.47;;;15.00;98.30;;;;;;5124335;23;20421;-84
2021/08/01 23:34:25;;;;;;;5.77;4.10;;;15.00;98.30;;;;;;5117167;23;20428;-83
2021/08/01 23:36:37;;;;;;;4.80;3.50;;;14.90;98.30;;;;;;5125523;23;20520;-83
2021/08/01 23:38:42;;;;;;;6.33;3.53;;;14.90;98.30;;;;;;5124986;23;21022;-83
2021/08/01 23:40:45;;;;;;;3.77;2.93;;;14.90;98.30;;;;;;5118475;23;21014;-83
2021/08/01 23:42:50;;;;;;;6.00;3.23;;;14.90;98.30;;;;;;5125802;23;20822;-84
2021/08/01 23:44:58;;;;;;;8.50;4.47;;;14.80;98.30;;;;;;5118186;23;20445;-83
2021/08/01 23:47:02;;;;;;;8.83;3.30;;;14.80;98.30;;;;;;5125585;23;20512;-83
2021/08/01 23:49:07;;;;;;;3.90;2.80;;;14.80;98.30;;;;;;5116895;23;20993;-83
2021/08/01 23:51:22;;;;;;;4.07;3.33;;;14.80;98.30;;;;;;5124843;23;20506;-82
2021/08/01 23:53:32;;;;;;;4.90;3.00;;;14.70;98.30;;;;;;5120039;23;20502;-83
2021/08/01 23:55:50;;;;;;;5.80;3.50;;;14.70;98.30;;;;;;5127100;23;20490;-84
2021/08/01 23:58:04;;;;;;;5.70;3.10;;;14.70;98.30;;;;;;5126626;23;20489;-83
